Time;durP1;ratioP1;P1;durP2;ratioP2;P2;SDS_P1;SDS_P2;PMS_P1;PMS_P2;Temp;Humidity;BMP_temperature;BMP_pressure;BME280_temperature;BME280_humidity;BME280_pressure;Samples;Min_cycle;Max_cycle;Signal;HPM_P1;HPM_P2
2022/09/07 00:00:53;;;;;;;0.30;0.30;;;;;;;22.36;69.04;101389.25;1976337;30;20138;-68
2022/09/07 00:01:55;;;;;;;0.20;0.20;;;;;;;22.38;70.07;101379.38;1976435;29;20189;-68
2022/09/07 00:02:57;;;;;;;0.20;0.20;;;;;;;22.39;70.19;101380.94;1976773;30;20059;-68
2022/09/07 00:04:00;;;;;;;0.20;0.20;;;;;;;22.40;69.35;101377.00;1974749;29;20145;-68
2022/09/07 00:05:03;;;;;;;0.30;0.30;;;;;;;22.44;70.05;101371.47;1968718;30;20083;-67
2022/09/07 00:06:08;;;;;;;0.20;0.20;;;;;;;22.47;69.92;101371.41;1969533;29;20067;-69
2022/09/07 00:07:10;;;;;;;0.32;0.32;;;;;;;22.46;68.89;101380.09;1976107;30;20078;-68
2022/09/07 00:08:15;;;;;;;0.38;0.38;;;;;;;22.48;69.99;101377.72;1976671;29;20055;-68
2022/09/07 00:09:17;;;;;;;0.35;0.35;;;;;;;22.48;70.17;101367.50;1976399;30;20131;-68
2022/09/07 00:10:20;;;;;;;0.30;0.30;;;;;;;22.51;70.21;101372.19;1976275;30;20166;-68
2022/09/07 00:11:22;;;;;;;0.30;0.30;;;;;;;22.51;70.31;101365.88;1976363;30;20134;-68
2022/09/07 00:12:25;;;;;;;0.30;0.30;;;;;;;22.54;70.55;101370.59;1975950;30;20051;-68
2022/09/07 00:13:30;;;;;;;0.20;0.20;;;;;;;22.57;69.58;101375.28;1975939;29;20533;-69
2022/09/07 00:14:34;;;;;;;0.30;0.30;;;;;;;22.54;69.57;101359.59;1968423;30;20063;-69
2022/09/07 00:15:39;;;;;;;0.30;0.30;;;;;;;22.54;70.18;101367.84;1968886;30;20076;-68
2022/09/07 00:16:43;;;;;;;0.30;0.30;;;;;;;22.54;69.17;101370.59;1970182;30;20148;-69
2022/09/07 00:17:44;;;;;;;0.30;0.30;;;;;;;22.53;68.39;101366.28;1976617;29;20067;-70
2022/09/07 00:18:48;;;;;;;0.30;0.30;;;;;;;22.52;67.80;101364.72;1976316;29;21172;-69
2022/09/07 00:19:49;;;;;;;0.30;0.30;;;;;;;22.43;67.92;101354.19;1976129;30;20066;-69
2022/09/07 00:21:00;;;;;;;0.30;0.30;;;;;;;22.34;67.26;101364.09;1976472;29;20560;-68
2022/09/07 00:22:01;;;;;;;;;;;;;;;22.01;69.74;101351.78;1976705;29;20059;-69
2022/09/07 00:23:04;;;;;;;0.30;0.30;;;;;;;22.10;68.73;101352.13;1976177;30;19990;-69
2022/09/07 00:24:06;;;;;;;0.30;0.30;;;;;;;22.14;69.03;101348.16;1976546;29;21465;-69
2022/09/07 00:25:09;;;;;;;0.35;0.35;;;;;;;22.13;68.87;101357.59;1975937;30;20174;-69
2022/09/07 00:26:13;;;;;;;0.20;0.20;;;;;;;22.15;68.18;101343.44;1975894;29;20130;-68
2022/09/07 00:27:16;;;;;;;0.30;0.30;;;;;;;22.16;69.10;101343.03;1976288;30;20071;-68
2022/09/07 00:28:18;;;;;;;0.30;0.30;;;;;;;22.13;69.63;101341.09;1976217;29;20103;-68
2022/09/07 00:29:21;;;;;;;0.40;0.40;;;;;;;22.16;70.58;101334.78;1976404;30;20819;-69
2022/09/07 00:30:23;;;;;;;0.30;0.30;;;;;;;22.16;69.70;101334.78;1976297;29;20135;-69
2022/09/07 00:31:29;;;;;;;0.30;0.30;;;;;;;22.23;67.75;101334.69;1968225;30;20830;-69
2022/09/07 00:32:31;;;;;;;0.30;0.30;;;;;;;22.17;67.28;101335.53;1968630;30;20127;-68
2022/09/07 00:33:34;;;;;;;0.25;0.25;;;;;;;22.16;68.10;101334.78;1976701;29;20104;-68
2022/09/07 00:34:36;;;;;;;0.30;0.30;;;;;;;22.11;68.42;101328.94;1976626;30;20609;-69
2022/09/07 00:35:40;;;;;;;0.35;0.35;;;;;;;22.08;68.33;101338.00;1976432;30;20115;-69
2022/09/07 00:36:42;;;;;;;0.30;0.30;;;;;;;22.03;67.27;101339.22;1976368;29;20482;-69
2022/09/07 00:37:44;;;;;;;0.30;0.30;;;;;;;21.97;67.41;101338.09;1975810;29;20107;-68
2022/09/07 00:38:46;;;;;;;0.30;0.30;;;;;;;21.94;67.92;101335.38;1976601;30;20192;-69
2022/09/07 00:39:49;;;;;;;0.20;0.20;;;;;;;21.89;68.25;101336.59;1975765;29;20055;-68
2022/09/07 00:40:52;;;;;;;0.30;0.30;;;;;;;21.89;68.65;101338.53;1976283;29;20055;-68
2022/09/07 00:41:55;;;;;;;0.40;0.40;;;;;;;21.83;69.58;101332.72;1969897;30;20592;-69
2022/09/07 00:42:56;;;;;;;0.30;0.30;;;;;;;21.80;69.07;101336.25;1969919;30;20126;-68
2022/09/07 00:44:38;;;;;;;0.30;0.30;;;;;;;21.73;70.39;101330.00;1976097;30;20500;-68
2022/09/07 00:45:40;;;;;;;0.30;0.30;;;;;;;21.69;69.02;101332.75;1975588;30;20055;-69
2022/09/07 00:46:45;;;;;;;0.30;0.30;;;;;;;21.72;69.43;101331.94;1976915;30;20063;-68
2022/09/07 00:47:53;;;;;;;0.30;0.30;;;;;;;21.71;69.39;101326.84;1975671;29;20055;-69
2022/09/07 00:49:00;;;;;;;0.30;0.30;;;;;;;21.68;70.38;101319.41;1976225;30;20059;-69
2022/09/07 00:50:06;;;;;;;0.38;0.38;;;;;;;21.66;69.57;101321.81;1975932;29;20129;-69
2022/09/07 00:51:13;;;;;;;0.30;0.30;;;;;;;21.64;69.42;101321.44;1975871;29;20138;-69
2022/09/07 00:52:18;;;;;;;0.28;0.28;;;;;;;21.62;70.25;101312.81;1975793;30;20506;-69
2022/09/07 00:53:25;;;;;;;0.30;0.30;;;;;;;21.65;70.06;101309.25;1976167;30;20592;-69
2022/09/07 00:54:31;;;;;;;0.30;0.30;;;;;;;21.67;70.04;101304.91;1976227;29;20124;-69
2022/09/07 00:55:37;;;;;;;0.30;0.30;;;;;;;21.70;70.70;101295.06;1967980;30;20059;-68
2022/09/07 00:56:42;;;;;;;0.32;0.32;;;;;;;21.71;70.16;101291.91;1961709;30;20063;-69
2022/09/07 00:57:50;;;;;;;0.30;0.30;;;;;;;21.72;70.51;101292.72;1969861;30;20569;-69
2022/09/07 00:58:52;;;;;;;0.30;0.30;;;;;;;21.69;71.23;101296.28;1976071;29;20091;-68
2022/09/07 00:59:57;;;;;;;0.35;0.35;;;;;;;21.69;70.53;101288.78;1976320;30;20134;-68
2022/09/07 01:00:59;;;;;;;0.30;0.30;;;;;;;21.64;69.55;101304.94;1975862;29;20063;-69
2022/09/07 01:02:04;;;;;;;0.30;0.30;;;;;;;21.62;70.05;101316.34;1975778;30;20055;-69
2022/09/07 01:03:09;;;;;;;0.30;0.30;;;;;;;21.56;70.56;101331.69;1976327;29;20098;-70
2022/09/07 01:04:12;;;;;;;0.40;0.40;;;;;;;21.51;70.77;101334.06;1975050;29;20140;-69
2022/09/07 01:05:20;;;;;;;0.30;0.30;;;;;;;21.52;70.94;101350.16;1976241;30;20576;-68
2022/09/07 01:06:26;;;;;;;0.30;0.30;;;;;;;21.43;70.50;101358.06;1976024;29;20063;-68
2022/09/07 01:07:28;;;;;;;0.30;0.30;;;;;;;21.40;70.35;101360.84;1975939;29;20059;-69
2022/09/07 01:08:32;;;;;;;0.30;0.30;;;;;;;21.32;70.97;101357.34;1976150;30;20095;-69
2022/09/07 01:09:35;;;;;;;0.30;0.30;;;;;;;21.29;71.01;101362.84;1976247;30;20051;-68
2022/09/07 01:10:38;;;;;;;0.30;0.30;;;;;;;21.21;71.46;101364.06;1975805;29;20508;-69
2022/09/07 01:11:42;;;;;;;0.30;0.30;;;;;;;21.18;71.61;101365.66;1975635;30;20116;-68
2022/09/07 01:12:45;;;;;;;0.40;0.40;;;;;;;21.01;72.15;101358.25;1976040;29;20062;-68
2022/09/07 01:13:48;;;;;;;0.30;0.30;;;;;;;20.97;72.44;101364.94;1975751;30;20162;-69
2022/09/07 01:14:54;;;;;;;0.25;0.25;;;;;;;20.96;73.36;101372.41;1976320;30;20185;-68
2022/09/07 01:16:06;;;;;;;0.30;0.30;;;;;;;20.92;72.71;101377.09;1976275;29;20123;-69
2022/09/07 01:17:14;;;;;;;0.30;0.30;;;;;;;20.87;72.10;101374.75;1976049;30;20474;-69
2022/09/07 01:18:24;;;;;;;0.30;0.30;;;;;;;20.80;72.39;101383.03;1975776;29;20191;-69
2022/09/07 01:20:04;;;;;;;0.30;0.30;;;;;;;20.67;74.03;101377.19;1976164;29;20133;-68
2022/09/07 01:21:24;;;;;;;0.38;0.38;;;;;;;20.69;74.49;101385.00;1976100;30;20065;-68
2022/09/07 01:22:37;;;;;;;;;;;;;;;20.61;75.68;101383.47;1975899;30;20142;-69
2022/09/07 01:24:16;;;;;;;0.40;0.40;;;;;;;20.74;73.96;101385.38;1975855;30;20410;-68
2022/09/07 01:25:37;;;;;;;0.40;0.40;;;;;;;20.84;74.18;101386.53;1975534;29;20086;-68
2022/09/07 01:27:00;;;;;;;0.40;0.40;;;;;;;20.93;73.72;101384.13;1967590;30;20090;-68
2022/09/07 01:28:11;;;;;;;0.40;0.40;;;;;;;21.01;74.15;101374.72;1970821;30;20055;-68
2022/09/07 01:29:23;;;;;;;0.30;0.30;;;;;;;21.10;74.06;101366.88;1976068;29;20095;-69
2022/09/07 01:30:26;;;;;;;0.40;0.40;;;;;;;21.18;73.92;101356.63;1976528;29;20107;-68
2022/09/07 01:31:39;;;;;;;0.40;0.40;;;;;;;21.26;73.11;101363.66;1975877;29;20059;-69
2022/09/07 01:33:07;;;;;;;0.30;0.30;;;;;;;21.25;73.35;101357.38;1976292;30;20997;-69
2022/09/07 01:34:16;;;;;;;0.30;0.30;;;;;;;21.28;73.37;101356.56;1964739;30;20115;-69
2022/09/07 01:35:25;;;;;;;0.30;0.30;;;;;;;21.31;73.53;101349.50;1976093;29;20593;-68
2022/09/07 01:36:33;;;;;;;0.30;0.30;;;;;;;21.35;73.49;101340.06;1976094;30;20063;-68
2022/09/07 01:37:48;;;;;;;0.40;0.40;;;;;;;21.37;74.08;101336.91;1976563;29;20066;-68
2022/09/07 01:38:55;;;;;;;0.40;0.40;;;;;;;21.38;73.18;101331.00;1976681;29;20162;-68
2022/09/07 01:40:06;;;;;;;0.38;0.38;;;;;;;21.39;72.33;101329.81;1976206;30;20182;-69
2022/09/07 01:41:15;;;;;;;0.40;0.40;;;;;;;21.39;72.82;101316.09;1976195;29;21727;-68
2022/09/07 01:42:24;;;;;;;0.40;0.40;;;;;;;21.36;72.27;101316.13;1976088;29;20112;-69
2022/09/07 01:43:36;;;;;;;0.30;0.30;;;;;;;21.34;72.63;101327.53;1967709;30;20131;-68
2022/09/07 01:44:41;;;;;;;0.40;0.40;;;;;;;21.30;73.03;101343.22;1968879;30;20523;-68
2022/09/07 01:45:46;;;;;;;0.30;0.30;;;;;;;21.29;72.59;101380.13;1975730;30;20111;-68
2022/09/07 01:46:53;;;;;;;0.30;0.30;;;;;;;21.23;72.75;101414.66;1975880;29;20524;-68
2022/09/07 01:47:59;;;;;;;0.40;0.40;;;;;;;21.12;73.33;101438.63;1975881;30;20131;-67
2022/09/07 01:49:09;;;;;;;0.40;0.40;;;;;;;20.92;73.52;101426.50;1974403;30;20146;-65
2022/09/07 01:50:16;;;;;;;0.40;0.40;;;;;;;20.51;75.03;101434.44;1975636;29;20059;-69
2022/09/07 01:51:23;;;;;;;0.30;0.30;;;;;;;20.41;76.48;101432.47;1976355;29;20056;-67
2022/09/07 01:52:33;;;;;;;0.32;0.32;;;;;;;20.16;77.23;101459.09;1975504;30;20059;-68
2022/09/07 01:53:41;;;;;;;0.40;0.40;;;;;;;20.01;79.83;101454.72;1975342;30;20055;-68
2022/09/07 01:54:48;;;;;;;0.40;0.40;;;;;;;19.84;80.62;101465.63;1975192;29;20126;-69
2022/09/07 01:55:56;;;;;;;0.80;0.80;;;;;;;19.75;81.15;101473.44;1975831;30;20130;-70
2022/09/07 01:57:02;;;;;;;0.70;0.70;;;;;;;19.65;83.76;101457.75;1975911;30;20063;-69
2022/09/07 01:58:11;;;;;;;0.70;0.70;;;;;;;19.02;87.98;101433.59;1976056;30;20105;-71
2022/09/07 01:59:20;;;;;;;0.70;0.70;;;;;;;18.85;90.58;101437.78;1975683;29;20504;-69
2022/09/07 02:00:23;;;;;;;0.60;0.60;;;;;;;18.79;90.77;101449.50;1975877;30;20051;-69
2022/09/07 02:01:31;;;;;;;0.70;0.70;;;;;;;18.86;90.23;101474.16;1975420;29;20512;-69
2022/09/07 02:02:38;;;;;;;0.73;0.73;;;;;;;18.88;89.32;101491.78;1975565;29;20083;-70
2022/09/07 02:03:47;;;;;;;0.70;0.70;;;;;;;18.93;88.01;101499.59;1969719;30;20099;-70
2022/09/07 02:04:54;;;;;;;0.60;0.60;;;;;;;18.98;87.42;101507.47;1970096;30;20194;-70
2022/09/07 02:06:01;;;;;;;0.60;0.60;;;;;;;19.04;87.73;101499.69;1968514;30;20196;-69
2022/09/07 02:07:10;;;;;;;0.60;0.60;;;;;;;19.05;86.79;101507.53;1969676;30;20147;-69
2022/09/07 02:08:18;;;;;;;0.60;0.60;;;;;;;19.03;86.90;101496.16;1977222;29;20081;-69
2022/09/07 02:09:30;;;;;;;0.60;0.60;;;;;;;18.97;90.71;101483.22;1970690;30;20063;-69
2022/09/07 02:10:36;;;;;;;0.60;0.60;;;;;;;19.06;91.84;101473.50;1971864;30;20059;-69
2022/09/07 02:11:41;;;;;;;0.60;0.60;;;;;;;19.16;91.18;101472.78;1977759;29;20112;-69
2022/09/07 02:12:48;;;;;;;0.70;0.70;;;;;;;19.29;91.50;101476.00;1976953;29;20079;-69
2022/09/07 02:13:54;;;;;;;0.65;0.65;;;;;;;19.40;91.60;101463.16;1977750;30;20091;-70
2022/09/07 02:15:03;;;;;;;0.60;0.60;;;;;;;19.51;90.74;101463.19;1977331;30;20058;-70
2022/09/07 02:16:12;;;;;;;0.70;0.70;;;;;;;19.56;90.72;101460.88;1977398;30;20066;-69
2022/09/07 02:17:23;;;;;;;0.70;0.70;;;;;;;19.65;91.74;101449.53;1970136;30;20127;-69
2022/09/07 02:18:34;;;;;;;0.60;0.60;;;;;;;19.72;90.94;101452.31;1969168;30;20134;-70
2022/09/07 02:19:44;;;;;;;0.60;0.60;;;;;;;19.78;91.23;101440.59;1970625;30;20056;-69
2022/09/07 02:20:50;;;;;;;0.63;0.63;;;;;;;19.83;90.27;101434.72;1970720;30;20124;-69
2022/09/07 02:21:58;;;;;;;0.60;0.60;;;;;;;19.88;91.32;101406.94;1970467;30;20142;-69
2022/09/07 02:23:04;;;;;;;0.50;0.50;;;;;;;19.87;88.76;101404.59;1969540;30;20564;-69
2022/09/07 02:24:12;;;;;;;0.60;0.60;;;;;;;19.82;87.42;101399.50;1962839;30;20068;-69
2022/09/07 02:25:21;;;;;;;0.60;0.60;;;;;;;19.69;85.67;101390.06;1971989;30;20063;-69
2022/09/07 02:26:28;;;;;;;0.60;0.60;;;;;;;19.62;86.23;101381.81;1976804;29;20177;-69
2022/09/07 02:27:37;;;;;;;0.50;0.50;;;;;;;19.51;85.47;101376.34;1977721;29;20071;-69
2022/09/07 02:28:40;;;;;;;0.57;0.57;;;;;;;19.42;85.63;101375.13;1976922;30;20063;-69
2022/09/07 02:29:43;;;;;;;0.50;0.50;;;;;;;19.38;86.43;101355.94;1977415;30;20059;-69
2022/09/07 02:30:47;;;;;;;0.60;0.60;;;;;;;19.39;85.74;101356.75;1976539;30;20106;-69
2022/09/07 02:31:50;;;;;;;0.50;0.50;;;;;;;19.39;86.76;101360.28;1968889;30;20508;-70
2022/09/07 02:32:55;;;;;;;0.60;0.60;;;;;;;19.42;86.57;101355.97;1969455;30;20544;-69
2022/09/07 02:33:59;;;;;;;0.50;0.50;;;;;;;19.41;85.30;101354.41;1977728;29;20519;-69
2022/09/07 02:35:01;;;;;;;0.50;0.50;;;;;;;19.34;84.74;101349.69;1977284;29;20593;-69
2022/09/07 02:36:05;;;;;;;0.47;0.47;;;;;;;19.29;84.26;101347.31;1977214;29;20076;-69
2022/09/07 02:37:08;;;;;;;0.50;0.50;;;;;;;19.23;84.44;101337.91;1976675;29;20142;-69
2022/09/07 02:38:11;;;;;;;0.50;0.50;;;;;;;19.16;84.05;101338.66;1976857;29;20533;-69
2022/09/07 02:39:13;;;;;;;0.40;0.40;;;;;;;19.12;84.30;101337.84;1976200;29;20059;-69
2022/09/07 02:40:16;;;;;;;0.40;0.40;;;;;;;19.11;85.39;101335.50;1975995;29;20047;-69
2022/09/07 02:41:30;;;;;;;0.50;0.50;;;;;;;19.10;86.82;101325.72;1976987;29;20474;-70
2022/09/07 02:42:34;;;;;;;0.50;0.50;;;;;;;19.13;86.29;101324.94;1977859;29;20059;-70
2022/09/07 02:43:36;;;;;;;0.40;0.40;;;;;;;19.17;87.62;101314.81;1977377;30;20065;-70
2022/09/07 02:44:44;;;;;;;0.50;0.50;;;;;;;19.23;87.90;101308.53;1977335;30;20564;-70
2022/09/07 02:46:09;;;;;;;0.45;0.45;;;;;;;19.18;86.10;101303.47;1978182;30;20549;-70
2022/09/07 02:47:30;;;;;;;0.40;0.40;;;;;;;19.24;88.31;101293.69;1976483;29;20140;-70
2022/09/07 02:48:41;;;;;;;0.40;0.40;;;;;;;19.26;85.49;101305.06;1976836;30;20059;-70
2022/09/07 02:50:11;;;;;;;0.40;0.40;;;;;;;19.21;84.76;101310.91;1976988;29;20059;-70
2022/09/07 02:51:19;;;;;;;0.40;0.40;;;;;;;19.11;84.71;101297.97;1977200;30;20059;-68
2022/09/07 02:52:32;;;;;;;0.40;0.40;;;;;;;19.12;84.96;101299.53;1977614;29;20115;-70
2022/09/07 02:53:56;;;;;;;0.40;0.40;;;;;;;19.07;84.95;101299.91;1976343;29;20100;-68
2022/09/07 02:55:07;;;;;;;0.40;0.40;;;;;;;19.07;85.17;101294.44;1968536;30;20600;-69
2022/09/07 02:56:22;;;;;;;0.40;0.40;;;;;;;19.08;85.62;101293.25;1963251;30;20112;-69
2022/09/07 02:57:31;;;;;;;0.40;0.40;;;;;;;19.11;85.09;101283.47;1970277;30;20096;-69
2022/09/07 02:58:43;;;;;;;0.40;0.40;;;;;;;19.09;84.97;101286.59;1976814;29;20401;-70
2022/09/07 02:59:59;;;;;;;0.47;0.47;;;;;;;19.10;85.56;101279.19;1977590;30;20077;-69
2022/09/07 03:01:11;;;;;;;0.40;0.40;;;;;;;19.10;84.66;101285.47;1976547;30;20580;-69
2022/09/07 03:02:20;;;;;;;0.40;0.40;;;;;;;19.12;83.97;101285.84;1977367;29;20048;-70
2022/09/07 03:03:29;;;;;;;0.38;0.38;;;;;;;19.11;83.44;101292.50;1977341;30;20051;-69
2022/09/07 03:04:41;;;;;;;0.40;0.40;;;;;;;19.05;82.75;101287.78;1977202;29;20901;-69
2022/09/07 03:05:49;;;;;;;0.40;0.40;;;;;;;19.03;82.91;101279.16;1976621;29;20063;-69
2022/09/07 03:06:58;;;;;;;0.40;0.40;;;;;;;18.99;82.75;101281.13;1977628;30;21875;-70
2022/09/07 03:08:05;;;;;;;0.40;0.40;;;;;;;18.96;82.73;101281.88;1976702;30;20484;-69
2022/09/07 03:09:14;;;;;;;0.40;0.40;;;;;;;18.92;82.43;101281.88;1976317;29;20142;-69
2022/09/07 03:10:18;;;;;;;0.40;0.40;;;;;;;18.91;82.72;101269.38;1977686;29;20123;-70
2022/09/07 03:11:20;;;;;;;0.40;0.40;;;;;;;18.89;82.53;101279.13;1977785;29;20055;-70
2022/09/07 03:12:23;;;;;;;0.40;0.40;;;;;;;18.88;83.47;101264.66;1976259;29;20055;-70
2022/09/07 03:13:27;;;;;;;0.40;0.40;;;;;;;18.89;82.79;101266.22;1969264;30;20533;-70
2022/09/07 03:14:32;;;;;;;0.30;0.30;;;;;;;18.88;82.39;101267.41;1969289;30;20051;-70
2022/09/07 03:15:34;;;;;;;0.40;0.40;;;;;;;18.86;82.52;101264.25;1977038;29;20056;-70
2022/09/07 03:16:38;;;;;;;0.40;0.40;;;;;;;18.86;82.46;101258.78;1976009;29;20064;-70
2022/09/07 03:17:40;;;;;;;0.30;0.30;;;;;;;18.83;81.96;101259.56;1975557;29;20059;-70
2022/09/07 03:18:44;;;;;;;0.32;0.32;;;;;;;18.84;82.27;101255.66;1976942;30;20535;-70
2022/09/07 03:19:46;;;;;;;0.30;0.30;;;;;;;18.84;82.24;101255.66;1976951;29;20147;-70
2022/09/07 03:20:49;;;;;;;0.40;0.40;;;;;;;18.85;82.32;101250.97;1977213;29;20138;-70
2022/09/07 03:21:51;;;;;;;0.30;0.30;;;;;;;18.86;81.94;101252.53;1976985;29;20539;-70
2022/09/07 03:22:54;;;;;;;0.38;0.38;;;;;;;18.85;81.81;101256.44;1976294;29;20115;-70
2022/09/07 03:23:56;;;;;;;0.40;0.40;;;;;;;18.84;81.96;101247.44;1976756;30;20166;-70
2022/09/07 03:24:59;;;;;;;0.30;0.30;;;;;;;18.84;81.83;101250.19;1977047;29;20991;-70
2022/09/07 03:26:00;;;;;;;0.30;0.30;;;;;;;18.82;82.02;101241.56;1976788;29;20059;-70
2022/09/07 03:27:03;;;;;;;0.30;0.30;;;;;;;18.84;82.20;101241.19;1976796;29;20051;-70
2022/09/07 03:28:05;;;;;;;0.30;0.30;;;;;;;18.84;82.10;101244.72;1976504;30;20147;-70
2022/09/07 03:29:09;;;;;;;0.30;0.30;;;;;;;18.85;82.62;101240.03;1976666;29;20070;-70
2022/09/07 03:30:12;;;;;;;0.30;0.30;;;;;;;18.84;82.60;101227.50;1976694;30;20074;-70
2022/09/07 03:31:15;;;;;;;0.30;0.30;;;;;;;18.84;82.58;101233.75;1977026;30;20077;-70
2022/09/07 03:32:18;;;;;;;0.30;0.30;;;;;;;18.85;82.83;101229.84;1976974;29;20397;-70
2022/09/07 03:33:21;;;;;;;0.40;0.40;;;;;;;18.82;83.29;101230.63;1976646;29;20166;-70
2022/09/07 03:34:23;;;;;;;0.30;0.30;;;;;;;18.83;83.14;101232.22;1976615;30;20055;-70
2022/09/07 03:35:26;;;;;;;0.40;0.40;;;;;;;18.80;83.00;101234.94;1976899;29;20134;-70
2022/09/07 03:36:30;;;;;;;0.40;0.40;;;;;;;18.77;82.74;101238.44;1976760;30;20067;-70
2022/09/07 03:37:34;;;;;;;0.40;0.40;;;;;;;18.75;82.23;101241.56;1976360;29;20059;-71
2022/09/07 03:38:37;;;;;;;0.30;0.30;;;;;;;18.74;82.40;101242.72;1977111;30;20581;-70
2022/09/07 03:39:39;;;;;;;0.40;0.40;;;;;;;18.72;82.37;101247.81;1977031;30;20055;-70
2022/09/07 03:40:42;;;;;;;0.40;0.40;;;;;;;18.74;82.62;101239.97;1976668;29;20082;-71
2022/09/07 03:41:44;;;;;;;0.30;0.30;;;;;;;18.75;82.44;101247.03;1976693;30;20500;-71
2022/09/07 03:42:48;;;;;;;0.40;0.40;;;;;;;18.76;82.13;101250.53;1976395;30;20115;-71
2022/09/07 03:43:51;;;;;;;0.30;0.30;;;;;;;18.74;81.89;101248.19;1976344;30;20078;-71
2022/09/07 03:44:54;;;;;;;0.40;0.40;;;;;;;18.77;81.91;101252.13;1976638;29;20078;-71
2022/09/07 03:45:57;;;;;;;0.40;0.40;;;;;;;18.73;81.73;101252.09;1976136;29;20138;-70
2022/09/07 03:47:00;;;;;;;0.40;0.40;;;;;;;18.73;82.26;101246.63;1968773;30;20123;-70
2022/09/07 03:48:03;;;;;;;0.40;0.40;;;;;;;18.72;81.98;101244.28;1961521;30;20065;-71
2022/09/07 03:49:06;;;;;;;0.40;0.40;;;;;;;18.73;81.98;101246.63;1962956;30;20502;-71
2022/09/07 03:50:09;;;;;;;0.40;0.40;;;;;;;18.74;82.27;101233.75;1969259;30;20104;-71
2022/09/07 03:51:13;;;;;;;0.40;0.40;;;;;;;18.74;82.42;101237.25;1976757;30;20494;-71
2022/09/07 03:52:15;;;;;;;0.40;0.40;;;;;;;18.79;82.11;101241.56;1969015;30;20067;-71
2022/09/07 03:53:18;;;;;;;0.40;0.40;;;;;;;18.78;82.07;101243.53;1968831;30;20568;-70
2022/09/07 03:54:21;;;;;;;0.40;0.40;;;;;;;18.78;82.21;101235.31;1976699;30;20488;-71
2022/09/07 03:55:23;;;;;;;0.40;0.40;;;;;;;18.78;82.69;101235.31;1976763;30;20568;-71
2022/09/07 03:56:26;;;;;;;0.40;0.40;;;;;;;18.81;82.52;101228.28;1976290;29;20129;-70
2022/09/07 03:57:28;;;;;;;0.40;0.40;;;;;;;18.83;82.33;101231.41;1976748;30;20104;-71
2022/09/07 03:58:32;;;;;;;0.40;0.40;;;;;;;18.83;82.94;101232.22;1976374;30;20059;-71
2022/09/07 03:59:35;;;;;;;0.40;0.40;;;;;;;18.84;82.50;101232.97;1969090;30;20183;-71
2022/09/07 04:00:40;;;;;;;0.40;0.40;;;;;;;18.84;82.63;101232.97;1969095;30;20410;-71
2022/09/07 04:01:43;;;;;;;0.40;0.40;;;;;;;18.82;82.32;101230.63;1968579;30;20182;-71
2022/09/07 04:02:45;;;;;;;0.50;0.50;;;;;;;18.80;82.58;101232.97;1968472;30;20059;-71
2022/09/07 04:03:50;;;;;;;0.40;0.40;;;;;;;18.81;82.81;101229.06;1976655;30;20066;-71
2022/09/07 04:04:52;;;;;;;0.40;0.40;;;;;;;18.81;82.88;101229.06;1976350;30;20130;-71
2022/09/07 04:05:56;;;;;;;0.50;0.50;;;;;;;18.80;82.28;101227.50;1976539;30;20070;-71
2022/09/07 04:06:58;;;;;;;0.50;0.50;;;;;;;18.78;82.87;101234.53;1968741;30;20101;-71
2022/09/07 04:08:00;;;;;;;0.50;0.50;;;;;;;18.77;82.78;101228.28;1968566;30;20492;-71
2022/09/07 04:09:04;;;;;;;0.50;0.50;;;;;;;18.77;83.02;101232.97;1976489;30;20126;-71
2022/09/07 04:10:08;;;;;;;0.40;0.40;;;;;;;18.75;82.66;101227.09;1975876;29;20138;-71
2022/09/07 04:11:13;;;;;;;0.40;0.40;;;;;;;18.76;82.69;101225.91;1976457;30;20063;-71
2022/09/07 04:12:15;;;;;;;0.40;0.40;;;;;;;18.77;82.53;101228.28;1976538;30;20060;-71
2022/09/07 04:13:17;;;;;;;0.40;0.40;;;;;;;18.80;82.33;101232.97;1976122;29;20060;-71
2022/09/07 04:14:20;;;;;;;0.40;0.40;;;;;;;18.78;82.32;101227.09;1976203;29;20138;-71
2022/09/07 04:15:22;;;;;;;0.45;0.45;;;;;;;18.78;82.68;101224.38;1976408;29;20060;-71
2022/09/07 04:16:26;;;;;;;0.40;0.40;;;;;;;18.79;82.50;101225.94;1976176;30;20047;-71
2022/09/07 04:17:28;;;;;;;0.40;0.40;;;;;;;18.76;82.85;101221.22;1976321;29;20058;-71
2022/09/07 04:18:31;;;;;;;0.40;0.40;;;;;;;18.79;82.53;101219.69;1968844;30;20066;-71
2022/09/07 04:19:36;;;;;;;0.50;0.50;;;;;;;18.76;82.62;101217.69;1967723;30;20827;-71
2022/09/07 04:20:38;;;;;;;0.40;0.40;;;;;;;18.76;82.66;101225.91;1976715;29;20063;-71
2022/09/07 04:21:43;;;;;;;0.30;0.30;;;;;;;18.75;82.69;101227.09;1976597;29;20055;-71
2022/09/07 04:22:46;;;;;;;0.40;0.40;;;;;;;18.78;83.32;101224.38;1976123;30;20059;-71
2022/09/07 04:23:54;;;;;;;0.40;0.40;;;;;;;18.80;82.82;101226.72;1976438;30;20066;-71
2022/09/07 04:24:56;;;;;;;0.40;0.40;;;;;;;18.83;84.00;101220.47;1976109;30;20067;-71
2022/09/07 04:25:59;;;;;;;0.40;0.40;;;;;;;18.89;84.84;101219.72;1967970;30;20060;-71
2022/09/07 04:27:01;;;;;;;0.40;0.40;;;;;;;18.90;84.15;101221.28;1967420;29;20063;-71
2022/09/07 04:28:04;;;;;;;0.30;0.30;;;;;;;18.95;83.79;101222.84;1976576;30;20055;-71
2022/09/07 04:29:07;;;;;;;0.40;0.40;;;;;;;18.98;83.19;101222.84;1968246;30;20158;-71
2022/09/07 04:30:12;;;;;;;0.30;0.30;;;;;;;18.98;82.68;101217.38;1968558;30;20502;-71
2022/09/07 04:31:16;;;;;;;0.32;0.32;;;;;;;19.01;82.48;101216.59;1976524;30;20827;-71
2022/09/07 04:32:18;;;;;;;0.38;0.38;;;;;;;18.99;83.17;101207.22;1976430;30;20071;-71
2022/09/07 04:33:21;;;;;;;0.40;0.40;;;;;;;19.00;83.36;101201.34;1976299;30;20094;-71
2022/09/07 04:34:23;;;;;;;0.40;0.40;;;;;;;19.01;83.00;101202.16;1976836;30;20059;-71
2022/09/07 04:35:27;;;;;;;0.40;0.40;;;;;;;19.02;82.54;101201.75;1976557;29;20469;-71
2022/09/07 04:36:30;;;;;;;0.30;0.30;;;;;;;18.98;82.68;101194.72;1968311;30;20470;-71
2022/09/07 04:37:32;;;;;;;0.43;0.43;;;;;;;19.01;82.58;101197.44;1968073;30;20121;-71
2022/09/07 04:38:35;;;;;;;0.40;0.40;;;;;;;19.00;82.20;101200.56;1976330;30;20142;-71
2022/09/07 04:39:37;;;;;;;0.40;0.40;;;;;;;19.02;83.06;101192.75;1975633;30;20064;-71
2022/09/07 04:40:40;;;;;;;0.30;0.30;;;;;;;19.04;82.30;101199.41;1976365;29;20409;-71
2022/09/07 04:41:43;;;;;;;0.40;0.40;;;;;;;19.02;82.51;101204.50;1976489;30;20588;-71
2022/09/07 04:42:45;;;;;;;0.40;0.40;;;;;;;19.05;82.56;101200.19;1976013;29;20090;-72
2022/09/07 04:43:52;;;;;;;0.50;0.50;;;;;;;19.06;82.15;101197.06;1976181;30;20067;-71
2022/09/07 04:44:54;;;;;;;0.50;0.50;;;;;;;19.07;83.25;101192.38;1976421;29;20059;-71
2022/09/07 04:45:57;;;;;;;0.50;0.50;;;;;;;19.07;83.16;101190.44;1976350;29;20477;-71
2022/09/07 04:46:59;;;;;;;0.40;0.40;;;;;;;19.10;83.21;101197.06;1976544;29;20126;-71
2022/09/07 04:48:02;;;;;;;0.40;0.40;;;;;;;19.12;82.59;101200.97;1969186;30;20121;-71
2022/09/07 04:49:07;;;;;;;0.40;0.40;;;;;;;19.14;83.25;101198.66;1969611;30;20075;-71
2022/09/07 04:50:09;;;;;;;0.40;0.40;;;;;;;19.13;82.92;101205.31;1975974;29;20063;-71
2022/09/07 04:51:14;;;;;;;0.40;0.40;;;;;;;19.17;82.48;101208.03;1975293;29;20127;-71
2022/09/07 04:52:16;;;;;;;0.40;0.40;;;;;;;19.17;82.70;101210.78;1976751;29;20846;-71
2022/09/07 04:53:19;;;;;;;0.40;0.40;;;;;;;19.17;83.22;101203.34;1975859;30;20066;-71
2022/09/07 04:54:21;;;;;;;0.45;0.45;;;;;;;19.18;82.81;101206.88;1975962;30;20459;-71
2022/09/07 04:55:24;;;;;;;0.43;0.43;;;;;;;19.21;81.80;101220.56;1976492;30;20079;-72
2022/09/07 04:56:27;;;;;;;0.40;0.40;;;;;;;19.21;82.52;101215.09;1976209;29;20508;-72
2022/09/07 04:57:30;;;;;;;0.50;0.50;;;;;;;19.21;82.05;101212.34;1976017;29;20055;-72
2022/09/07 04:58:31;;;;;;;0.40;0.40;;;;;;;19.21;81.94;101225.25;1975907;30;20090;-71
2022/09/07 04:59:34;;;;;;;0.50;0.50;;;;;;;19.23;81.54;101223.66;1975723;30;20153;-71
2022/09/07 05:00:37;;;;;;;0.40;0.40;;;;;;;19.20;81.35;101223.69;1969671;30;20055;-72
2022/09/07 05:01:40;;;;;;;0.40;0.40;;;;;;;19.20;81.07;101224.44;1968605;30;20143;-72
2022/09/07 05:02:42;;;;;;;0.40;0.40;;;;;;;19.20;82.30;101218.97;1975379;29;20670;-71
2022/09/07 05:03:47;;;;;;;0.40;0.40;;;;;;;19.21;81.62;101220.56;1976237;29;20059;-71
2022/09/07 05:04:50;;;;;;;0.40;0.40;;;;;;;19.19;81.82;101222.91;1976378;29;20070;-71
2022/09/07 05:05:52;;;;;;;0.32;0.32;;;;;;;19.21;82.26;101225.25;1975947;30;20122;-71
2022/09/07 05:06:56;;;;;;;0.40;0.40;;;;;;;19.22;82.28;101230.34;1975843;30;20063;-71